sensor_id;sensor_type;location;lat;lon;timestamp;temperature;humidity
49503;DHT22;35409;48.776;9.204;2023-07-30T00:01:20;17.10;99.90
49503;DHT22;35409;48.776;9.204;2023-07-30T00:03:45;17.10;99.90
49503;DHT22;35409;48.776;9.204;2023-07-30T00:06:11;17.00;99.90
49503;DHT22;35409;48.776;9.204;2023-07-30T00:08:37;17.00;99.90
49503;DHT22;35409;48.776;9.204;2023-07-30T00:11:02;16.90;99.90
49503;DHT22;35409;48.776;9.204;2023-07-30T00:13:28;16.90;99.90
49503;DHT22;35409;48.776;9.204;2023-07-30T00:15:53;16.70;99.90
49503;DHT22;35409;48.776;9.204;2023-07-30T00:18:19;16.70;99.90
49503;DHT22;35409;48.776;9.204;2023-07-30T00:20:44;16.60;99.90
49503;DHT22;35409;48.776;9.204;2023-07-30T00:23:10;16.60;99.90
49503;DHT22;35409;48.776;9.204;2023-07-30T00:25:36;16.50;99.90
49503;DHT22;35409;48.776;9.204;2023-07-30T00:28:02;16.50;99.90
49503;DHT22;35409;48.776;9.204;2023-07-30T00:30:28;16.40;99.90
49503;DHT22;35409;48.776;9.204;2023-07-30T00:32:53;16.40;99.90
49503;DHT22;35409;48.776;9.204;2023-07-30T00:35:19;16.40;99.90
49503;DHT22;35409;48.776;9.204;2023-07-30T00:37:44;16.40;99.90
49503;DHT22;35409;48.776;9.204;2023-07-30T00:40:10;16.40;99.90
49503;DHT22;35409;48.776;9.204;2023-07-30T00:42:36;16.30;99.90
49503;DHT22;35409;48.776;9.204;2023-07-30T00:45:02;16.40;99.90
49503;DHT22;35409;48.776;9.204;2023-07-30T00:47:28;16.40;99.90
49503;DHT22;35409;48.776;9.204;2023-07-30T00:49:54;16.50;99.90
49503;DHT22;35409;48.776;9.204;2023-07-30T00:52:21;16.50;99.90
49503;DHT22;35409;48.776;9.204;2023-07-30T00:54:48;16.60;99.90
49503;DHT22;35409;48.776;9.204;2023-07-30T00:57:15;16.60;99.90
49503;DHT22;35409;48.776;9.204;2023-07-30T00:59:42;16.60;99.90
49503;DHT22;35409;48.776;9.204;2023-07-30T01:02:09;16.70;99.90
49503;DHT22;35409;48.776;9.204;2023-07-30T01:04:36;16.80;99.90
49503;DHT22;35409;48.776;9.204;2023-07-30T01:07:05;16.80;99.90
49503;DHT22;35409;48.776;9.204;2023-07-30T01:09:32;16.80;99.90
49503;DHT22;35409;48.776;9.204;2023-07-30T01:11:58;16.90;99.90
49503;DHT22;35409;48.776;9.204;2023-07-30T01:14:24;16.90;99.90
49503;DHT22;35409;48.776;9.204;2023-07-30T01:16:52;17.00;99.90
49503;DHT22;35409;48.776;9.204;2023-07-30T01:19:18;17.00;99.90
49503;DHT22;35409;48.776;9.204;2023-07-30T01:21:43;17.00;99.90
49503;DHT22;35409;48.776;9.204;2023-07-30T01:24:09;17.10;99.90
49503;DHT22;35409;48.776;9.204;2023-07-30T01:29:14;17.10;99.90
49503;DHT22;35409;48.776;9.204;2023-07-30T01:31:42;17.10;99.90
49503;DHT22;35409;48.776;9.204;2023-07-30T01:34:09;17.10;99.90
49503;DHT22;35409;48.776;9.204;2023-07-30T01:36:38;17.10;99.90
49503;DHT22;35409;48.776;9.204;2023-07-30T01:39:05;17.10;99.90
49503;DHT22;35409;48.776;9.204;2023-07-30T01:41:31;17.10;99.90
49503;DHT22;35409;48.776;9.204;2023-07-30T01:43:57;17.10;99.90
49503;DHT22;35409;48.776;9.204;2023-07-30T01:46:22;17.10;99.90
49503;DHT22;35409;48.776;9.204;2023-07-30T01:48:48;17.10;99.90
49503;DHT22;35409;48.776;9.204;2023-07-30T01:51:13;17.10;99.90
49503;DHT22;35409;48.776;9.204;2023-07-30T01:53:39;17.10;99.90
49503;DHT22;35409;48.776;9.204;2023-07-30T01:56:05;17.10;99.90
49503;DHT22;35409;48.776;9.204;2023-07-30T01:58:30;17.10;99.90
49503;DHT22;35409;48.776;9.204;2023-07-30T02:00:56;17.10;99.90
49503;DHT22;35409;48.776;9.204;2023-07-30T02:03:21;17.10;99.90
49503;DHT22;35409;48.776;9.204;2023-07-30T02:05:47;17.20;99.90
49503;DHT22;35409;48.776;9.204;2023-07-30T02:08:12;17.20;99.90
49503;DHT22;35409;48.776;9.204;2023-07-30T02:10:41;17.20;99.90
49503;DHT22;35409;48.776;9.204;2023-07-30T02:13:07;17.10;99.90
49503;DHT22;35409;48.776;9.204;2023-07-30T02:15:32;17.20;99.90
49503;DHT22;35409;48.776;9.204;2023-07-30T02:17:58;17.20;99.90
49503;DHT22;35409;48.776;9.204;2023-07-30T02:20:23;17.20;99.90
49503;DHT22;35409;48.776;9.204;2023-07-30T02:22:49;17.20;99.90
49503;DHT22;35409;48.776;9.204;2023-07-30T02:25:14;17.20;99.90
49503;DHT22;35409;48.776;9.204;2023-07-30T02:27:40;17.10;99.90
49503;DHT22;35409;48.776;9.204;2023-07-30T02:30:06;17.10;99.90
49503;DHT22;35409;48.776;9.204;2023-07-30T02:32:32;17.10;99.90
49503;DHT22;35409;48.776;9.204;2023-07-30T02:34:57;17.10;99.90
49503;DHT22;35409;48.776;9.204;2023-07-30T02:37:23;17.10;99.90
49503;DHT22;35409;48.776;9.204;2023-07-30T02:39:48;17.00;99.90
49503;DHT22;35409;48.776;9.204;2023-07-30T02:42:14;17.00;99.90
49503;DHT22;35409;48.776;9.204;2023-07-30T02:44:40;17.00;99.90
49503;DHT22;35409;48.776;9.204;2023-07-30T02:47:05;17.00;99.90
49503;DHT22;35409;48.776;9.204;2023-07-30T02:49:31;17.00;99.90
49503;DHT22;35409;48.776;9.204;2023-07-30T02:51:56;17.10;99.90
49503;DHT22;35409;48.776;9.204;2023-07-30T02:54:22;17.00;99.90
49503;DHT22;35409;48.776;9.204;2023-07-30T02:56:48;17.00;99.90
49503;DHT22;35409;48.776;9.204;2023-07-30T02:59:13;17.00;99.90
49503;DHT22;35409;48.776;9.204;2023-07-30T03:01:39;17.00;99.90
49503;DHT22;35409;48.776;9.204;2023-07-30T03:04:05;16.90;99.90
49503;DHT22;35409;48.776;9.204;2023-07-30T03:06:31;16.90;99.90
49503;DHT22;35409;48.776;9.204;2023-07-30T03:08:56;16.80;99.90
49503;DHT22;35409;48.776;9.204;2023-07-30T03:11:22;16.80;99.90
49503;DHT22;35409;48.776;9.204;2023-07-30T03:13:48;16.70;99.90
49503;DHT22;35409;48.776;9.204;2023-07-30T03:16:13;16.70;99.90
49503;DHT22;35409;48.776;9.204;2023-07-30T03:18:39;16.60;99.90
49503;DHT22;35409;48.776;9.204;2023-07-30T03:21:05;16.60;99.90
49503;DHT22;35409;48.776;9.204;2023-07-30T03:23:30;16.60;99.90
49503;DHT22;35409;48.776;9.204;2023-07-30T03:25:57;16.60;99.90
49503;DHT22;35409;48.776;9.204;2023-07-30T03:28:23;16.70;99.90
49503;DHT22;35409;48.776;9.204;2023-07-30T03:30:48;16.70;99.90
49503;DHT22;35409;48.776;9.204;2023-07-30T03:33:14;16.70;99.90
49503;DHT22;35409;48.776;9.204;2023-07-30T03:35:40;16.70;99.90
49503;DHT22;35409;48.776;9.204;2023-07-30T03:38:06;16.70;99.90
49503;DHT22;35409;48.776;9.204;2023-07-30T03:40:31;16.70;99.90
49503;DHT22;35409;48.776;9.204;2023-07-30T03:42:57;16.70;99.90
49503;DHT22;35409;48.776;9.204;2023-07-30T03:45:22;16.80;99.90
49503;DHT22;35409;48.776;9.204;2023-07-30T03:47:48;16.80;99.90
49503;DHT22;35409;48.776;9.204;2023-07-30T03:50:14;16.70;99.90
49503;DHT22;35409;48.776;9.204;2023-07-30T03:52:39;16.80;99.90
49503;DHT22;35409;48.776;9.204;2023-07-30T03:55:05;16.70;99.90
49503;DHT22;35409;48.776;9.204;2023-07-30T03:57:31;16.80;99.90
49503;DHT22;35409;48.776;9.204;2023-07-30T03:59:56;16.80;99.90
49503;DHT22;35409;48.776;9.204;2023-07-30T04:02:22;16.80;99.90
49503;DHT22;35409;48.776;9.204;2023-07-30T04:04:47;16.80;99.90
49503;DHT22;35409;48.776;9.204;2023-07-30T04:07:15;16.80;99.90
49503;DHT22;35409;48.776;9.204;2023-07-30T04:09:41;16.80;99.90
49503;DHT22;35409;48.776;9.204;2023-07-30T04:12:06;16.80;99.90
49503;DHT22;35409;48.776;9.204;2023-07-30T04:14:32;16.80;99.90
49503;DHT22;35409;48.776;9.204;2023-07-30T04:16:58;16.90;99.90
49503;DHT22;35409;48.776;9.204;2023-07-30T04:19:23;16.90;99.90
49503;DHT22;35409;48.776;9.204;2023-07-30T04:21:49;16.90;99.90
49503;DHT22;35409;48.776;9.204;2023-07-30T04:24:14;16.90;99.90
49503;DHT22;35409;48.776;9.204;2023-07-30T04:26:40;16.90;99.90
49503;DHT22;35409;48.776;9.204;2023-07-30T04:29:05;16.90;99.90
49503;DHT22;35409;48.776;9.204;2023-07-30T04:31:31;16.90;99.90
49503;DHT22;35409;48.776;9.204;2023-07-30T04:33:58;16.90;99.90
49503;DHT22;35409;48.776;9.204;2023-07-30T04:36:24;16.90;99.90
49503;DHT22;35409;48.776;9.204;2023-07-30T04:38:49;16.90;99.90
49503;DHT22;35409;48.776;9.204;2023-07-30T04:41:15;16.90;99.90
49503;DHT22;35409;48.776;9.204;2023-07-30T04:43:42;16.80;99.90
49503;DHT22;35409;48.776;9.204;2023-07-30T04:46:08;16.90;99.90
49503;DHT22;35409;48.776;9.204;2023-07-30T04:48:33;16.90;99.90
49503;DHT22;35409;48.776;9.204;2023-07-30T04:50:59;16.90;99.90
49503;DHT22;35409;48.776;9.204;2023-07-30T04:53:25;16.80;99.90
49503;DHT22;35409;48.776;9.204;2023-07-30T04:55:58;16.80;99.90
49503;DHT22;35409;48.776;9.204;2023-07-30T04:58:24;16.90;99.90
49503;DHT22;35409;48.776;9.204;2023-07-30T05:00:49;16.90;99.90
49503;DHT22;35409;48.776;9.204;2023-07-30T05:03:15;16.90;99.90
49503;DHT22;35409;48.776;9.204;2023-07-30T05:05:41;16.90;99.90
49503;DHT22;35409;48.776;9.204;2023-07-30T05:08:07;17.00;99.90
49503;DHT22;35409;48.776;9.204;2023-07-30T05:10:33;17.00;99.90
49503;DHT22;35409;48.776;9.204;2023-07-30T05:12:58;17.00;99.90
49503;DHT22;35409;48.776;9.204;2023-07-30T05:15:24;17.00;99.90
49503;DHT22;35409;48.776;9.204;2023-07-30T05:17:49;17.10;99.90
49503;DHT22;35409;48.776;9.204;2023-07-30T05:20:15;17.10;99.90
49503;DHT22;35409;48.776;9.204;2023-07-30T05:22:41;17.10;99.90
49503;DHT22;35409;48.776;9.204;2023-07-30T05:25:06;17.10;99.90
49503;DHT22;35409;48.776;9.204;2023-07-30T05:27:32;17.10;99.90
49503;DHT22;35409;48.776;9.204;2023-07-30T05:29:58;17.10;99.90
49503;DHT22;35409;48.776;9.204;2023-07-30T05:32:23;17.10;99.90
49503;DHT22;35409;48.776;9.204;2023-07-30T05:34:49;17.10;99.90
49503;DHT22;35409;48.776;9.204;2023-07-30T05:37:15;17.20;99.90
49503;DHT22;35409;48.776;9.204;2023-07-30T05:39:40;17.20;99.90
49503;DHT22;35409;48.776;9.204;2023-07-30T05:42:06;17.20;99.90
49503;DHT22;35409;48.776;9.204;2023-07-30T05:44:31;17.20;99.90
49503;DHT22;35409;48.776;9.204;2023-07-30T05:46:57;17.20;99.90
49503;DHT22;35409;48.776;9.204;2023-07-30T05:49:22;17.30;99.90
49503;DHT22;35409;48.776;9.204;2023-07-30T05:51:48;17.30;99.90
49503;DHT22;35409;48.776;9.204;2023-07-30T05:54:13;17.40;99.90
49503;DHT22;35409;48.776;9.204;2023-07-30T05:56:39;17.40;99.90
49503;DHT22;35409;48.776;9.204;2023-07-30T05:59:05;17.40;99.90
49503;DHT22;35409;48.776;9.204;2023-07-30T06:01:30;17.40;99.90
49503;DHT22;35409;48.776;9.204;2023-07-30T06:03:56;17.50;99.90
49503;DHT22;35409;48.776;9.204;2023-07-30T06:06:21;17.50;99.90
49503;DHT22;35409;48.776;9.204;2023-07-30T06:08:53;17.60;99.90
49503;DHT22;35409;48.776;9.204;2023-07-30T06:11:19;17.70;99.90
49503;DHT22;35409;48.776;9.204;2023-07-30T06:13:45;17.90;99.90
49503;DHT22;35409;48.776;9.204;2023-07-30T06:16:10;18.00;99.90
49503;DHT22;35409;48.776;9.204;2023-07-30T06:18:36;18.10;99.90
49503;DHT22;35409;48.776;9.204;2023-07-30T06:21:01;18.10;99.90
49503;DHT22;35409;48.776;9.204;2023-07-30T06:23:27;18.20;99.90
49503;DHT22;35409;48.776;9.204;2023-07-30T06:25:53;18.10;99.90
49503;DHT22;35409;48.776;9.204;2023-07-30T06:28:18;18.10;99.90
49503;DHT22;35409;48.776;9.204;2023-07-30T06:30:44;18.10;99.90
49503;DHT22;35409;48.776;9.204;2023-07-30T06:33:09;18.00;99.90
49503;DHT22;35409;48.776;9.204;2023-07-30T06:35:35;18.00;99.90
49503;DHT22;35409;48.776;9.204;2023-07-30T06:38:00;18.00;99.90
49503;DHT22;35409;48.776;9.204;2023-07-30T06:40:26;18.00;99.90
49503;DHT22;35409;48.776;9.204;2023-07-30T06:42:52;18.00;99.90
49503;DHT22;35409;48.776;9.204;2023-07-30T06:45:18;18.00;99.90
49503;DHT22;35409;48.776;9.204;2023-07-30T06:47:43;18.10;99.90
49503;DHT22;35409;48.776;9.204;2023-07-30T06:50:09;18.30;99.90
49503;DHT22;35409;48.776;9.204;2023-07-30T06:52:35;18.50;99.90
49503;DHT22;35409;48.776;9.204;2023-07-30T06:55:02;18.60;99.90
49503;DHT22;35409;48.776;9.204;2023-07-30T06:57:30;18.60;99.90
49503;DHT22;35409;48.776;9.204;2023-07-30T06:59:56;18.70;99.90
49503;DHT22;35409;48.776;9.204;2023-07-30T07:02:23;18.70;99.90
49503;DHT22;35409;48.776;9.204;2023-07-30T07:04:49;18.70;99.90
49503;DHT22;35409;48.776;9.204;2023-07-30T07:07:15;18.70;99.90
49503;DHT22;35409;48.776;9.204;2023-07-30T07:09:41;18.60;99.90
49503;DHT22;35409;48.776;9.204;2023-07-30T07:12:07;18.60;99.90
49503;DHT22;35409;48.776;9.204;2023-07-30T07:14:32;18.50;99.90
49503;DHT22;35409;48.776;9.204;2023-07-30T07:16:58;18.50;99.90
49503;DHT22;35409;48.776;9.204;2023-07-30T07:19:23;18.50;99.90
49503;DHT22;35409;48.776;9.204;2023-07-30T07:21:49;18.50;99.90
49503;DHT22;35409;48.776;9.204;2023-07-30T07:24:15;18.50;99.90
49503;DHT22;35409;48.776;9.204;2023-07-30T07:26:41;18.50;99.90
49503;DHT22;35409;48.776;9.204;2023-07-30T07:29:07;18.60;99.90
49503;DHT22;35409;48.776;9.204;2023-07-30T07:31:32;18.60;99.90
49503;DHT22;35409;48.776;9.204;2023-07-30T07:33:58;18.70;99.90
49503;DHT22;35409;48.776;9.204;2023-07-30T07:36:23;18.60;99.90
49503;DHT22;35409;48.776;9.204;2023-07-30T07:38:49;18.70;99.90
49503;DHT22;35409;48.776;9.204;2023-07-30T07:41:15;18.60;99.90
49503;DHT22;35409;48.776;9.204;2023-07-30T07:43:45;18.50;99.90
49503;DHT22;35409;48.776;9.204;2023-07-30T07:46:11;18.50;99.90
49503;DHT22;35409;48.776;9.204;2023-07-30T07:48:43;18.40;99.90
49503;DHT22;35409;48.776;9.204;2023-07-30T07:51:10;18.40;99.90
49503;DHT22;35409;48.776;9.204;2023-07-30T07:53:36;18.30;99.90
49503;DHT22;35409;48.776;9.204;2023-07-30T07:56:02;18.20;99.90
49503;DHT22;35409;48.776;9.204;2023-07-30T07:58:28;18.20;99.90
49503;DHT22;35409;48.776;9.204;2023-07-30T08:00:56;18.30;99.90
49503;DHT22;35409;48.776;9.204;2023-07-30T08:03:23;18.40;99.90
49503;DHT22;35409;48.776;9.204;2023-07-30T08:05:49;18.50;99.90
49503;DHT22;35409;48.776;9.204;2023-07-30T08:08:15;18.60;99.90
49503;DHT22;35409;48.776;9.204;2023-07-30T08:10:41;18.80;99.90
49503;DHT22;35409;48.776;9.204;2023-07-30T08:13:12;19.00;99.90
49503;DHT22;35409;48.776;9.204;2023-07-30T08:15:38;19.20;99.90
49503;DHT22;35409;48.776;9.204;2023-07-30T08:18:04;19.40;99.90
49503;DHT22;35409;48.776;9.204;2023-07-30T08:20:30;19.50;99.90
49503;DHT22;35409;48.776;9.204;2023-07-30T08:22:57;19.60;99.90
49503;DHT22;35409;48.776;9.204;2023-07-30T08:25:22;19.70;99.90
49503;DHT22;35409;48.776;9.204;2023-07-30T08:27:48;19.70;99.90
49503;DHT22;35409;48.776;9.204;2023-07-30T08:30:13;19.90;99.90
49503;DHT22;35409;48.776;9.204;2023-07-30T08:32:39;20.10;99.90
49503;DHT22;35409;48.776;9.204;2023-07-30T08:35:07;20.30;99.90
49503;DHT22;35409;48.776;9.204;2023-07-30T08:37:33;20.50;99.90
49503;DHT22;35409;48.776;9.204;2023-07-30T08:39:58;20.70;99.90
49503;DHT22;35409;48.776;9.204;2023-07-30T08:42:24;20.80;99.90
49503;DHT22;35409;48.776;9.204;2023-07-30T08:44:49;21.00;99.90
49503;DHT22;35409;48.776;9.204;2023-07-30T08:47:15;21.10;99.90
49503;DHT22;35409;48.776;9.204;2023-07-30T08:49:41;21.30;99.90
49503;DHT22;35409;48.776;9.204;2023-07-30T08:52:09;21.30;99.90
49503;DHT22;35409;48.776;9.204;2023-07-30T08:54:37;21.30;99.90
49503;DHT22;35409;48.776;9.204;2023-07-30T08:57:03;21.20;99.90
49503;DHT22;35409;48.776;9.204;2023-07-30T08:59:37;21.20;99.90
49503;DHT22;35409;48.776;9.204;2023-07-30T09:02:04;21.30;99.90
49503;DHT22;35409;48.776;9.204;2023-07-30T09:04:34;21.30;99.90
49503;DHT22;35409;48.776;9.204;2023-07-30T09:07:03;21.40;99.90
49503;DHT22;35409;48.776;9.204;2023-07-30T09:09:28;21.50;99.90
49503;DHT22;35409;48.776;9.204;2023-07-30T09:11:55;21.60;99.90
49503;DHT22;35409;48.776;9.204;2023-07-30T09:14:20;21.60;99.90
49503;DHT22;35409;48.776;9.204;2023-07-30T09:16:46;21.60;99.90
49503;DHT22;35409;48.776;9.204;2023-07-30T09:19:21;21.70;99.90
49503;DHT22;35409;48.776;9.204;2023-07-30T09:21:47;22.00;99.90
49503;DHT22;35409;48.776;9.204;2023-07-30T09:24:21;22.20;99.90
49503;DHT22;35409;48.776;9.204;2023-07-30T09:26:46;22.40;99.90
49503;DHT22;35409;48.776;9.204;2023-07-30T09:29:12;22.30;99.90
49503;DHT22;35409;48.776;9.204;2023-07-30T09:31:52;22.30;99.90
49503;DHT22;35409;48.776;9.204;2023-07-30T09:34:20;22.20;99.90
49503;DHT22;35409;48.776;9.204;2023-07-30T09:36:46;22.10;99.90
49503;DHT22;35409;48.776;9.204;2023-07-30T09:39:21;22.00;99.90
49503;DHT22;35409;48.776;9.204;2023-07-30T09:41:47;21.70;99.90
49503;DHT22;35409;48.776;9.204;2023-07-30T09:44:21;21.60;99.90
49503;DHT22;35409;48.776;9.204;2023-07-30T09:46:49;21.60;99.90
49503;DHT22;35409;48.776;9.204;2023-07-30T09:49:18;21.60;99.90
49503;DHT22;35409;48.776;9.204;2023-07-30T09:51:44;21.60;99.90
49503;DHT22;35409;48.776;9.204;2023-07-30T09:54:11;21.50;99.90
49503;DHT22;35409;48.776;9.204;2023-07-30T09:56:38;21.50;99.90
49503;DHT22;35409;48.776;9.204;2023-07-30T09:59:05;21.40;99.90
49503;DHT22;35409;48.776;9.204;2023-07-30T10:01:31;21.40;99.90
49503;DHT22;35409;48.776;9.204;2023-07-30T10:03:58;21.60;99.90
49503;DHT22;35409;48.776;9.204;2023-07-30T10:06:27;21.80;99.90
49503;DHT22;35409;48.776;9.204;2023-07-30T10:08:56;22.00;99.90
49503;DHT22;35409;48.776;9.204;2023-07-30T10:11:24;22.00;99.90
49503;DHT22;35409;48.776;9.204;2023-07-30T10:13:50;22.10;99.90
49503;DHT22;35409;48.776;9.204;2023-07-30T10:16:16;22.20;99.90
49503;DHT22;35409;48.776;9.204;2023-07-30T10:18:43;22.30;99.90
49503;DHT22;35409;48.776;9.204;2023-07-30T10:21:11;22.50;99.90
49503;DHT22;35409;48.776;9.204;2023-07-30T10:23:50;22.50;99.90
49503;DHT22;35409;48.776;9.204;2023-07-30T10:26:27;22.50;99.90
49503;DHT22;35409;48.776;9.204;2023-07-30T10:29:14;22.50;99.90
49503;DHT22;35409;48.776;9.204;2023-07-30T10:31:41;22.40;99.90
49503;DHT22;35409;48.776;9.204;2023-07-30T10:34:08;22.40;99.90
49503;DHT22;35409;48.776;9.204;2023-07-30T10:36:49;22.70;99.90
49503;DHT22;35409;48.776;9.204;2023-07-30T10:39:18;22.90;99.90
49503;DHT22;35409;48.776;9.204;2023-07-30T10:41:49;23.30;99.90
49503;DHT22;35409;48.776;9.204;2023-07-30T10:46:45;23.60;99.90
49503;DHT22;35409;48.776;9.204;2023-07-30T10:49:10;23.70;99.90
49503;DHT22;35409;48.776;9.204;2023-07-30T10:51:37;23.80;99.90
49503;DHT22;35409;48.776;9.204;2023-07-30T10:54:06;23.70;99.90
49503;DHT22;35409;48.776;9.204;2023-07-30T10:56:37;23.70;99.90
49503;DHT22;35409;48.776;9.204;2023-07-30T10:59:04;23.60;99.90
49503;DHT22;35409;48.776;9.204;2023-07-30T11:01:40;23.60;99.90
49503;DHT22;35409;48.776;9.204;2023-07-30T11:04:11;23.60;99.90
49503;DHT22;35409;48.776;9.204;2023-07-30T11:06:37;23.70;99.90
49503;DHT22;35409;48.776;9.204;2023-07-30T11:09:03;24.00;99.90
49503;DHT22;35409;48.776;9.204;2023-07-30T11:11:30;24.20;99.90
49503;DHT22;35409;48.776;9.204;2023-07-30T11:13:56;24.40;99.90
49503;DHT22;35409;48.776;9.204;2023-07-30T11:16:22;24.60;99.90
49503;DHT22;35409;48.776;9.204;2023-07-30T11:18:48;24.40;99.90
49503;DHT22;35409;48.776;9.204;2023-07-30T11:21:15;24.20;99.90
49503;DHT22;35409;48.776;9.204;2023-07-30T11:23:43;24.20;99.90
49503;DHT22;35409;48.776;9.204;2023-07-30T11:26:13;24.00;99.90
49503;DHT22;35409;48.776;9.204;2023-07-30T11:28:40;23.80;99.90
49503;DHT22;35409;48.776;9.204;2023-07-30T11:31:13;23.70;99.90
49503;DHT22;35409;48.776;9.204;2023-07-30T11:33:44;23.50;99.90
49503;DHT22;35409;48.776;9.204;2023-07-30T11:36:15;23.60;99.90
49503;DHT22;35409;48.776;9.204;2023-07-30T11:38:42;23.60;99.90
49503;DHT22;35409;48.776;9.204;2023-07-30T11:41:09;23.80;99.90
49503;DHT22;35409;48.776;9.204;2023-07-30T11:43:37;24.00;99.90
49503;DHT22;35409;48.776;9.204;2023-07-30T11:46:07;24.00;99.90
49503;DHT22;35409;48.776;9.204;2023-07-30T11:48:33;24.10;99.90
49503;DHT22;35409;48.776;9.204;2023-07-30T11:50:59;24.00;99.90
49503;DHT22;35409;48.776;9.204;2023-07-30T11:53:45;24.00;99.90
49503;DHT22;35409;48.776;9.204;2023-07-30T11:56:30;24.00;99.90
49503;DHT22;35409;48.776;9.204;2023-07-30T11:59:05;24.00;99.90
49503;DHT22;35409;48.776;9.204;2023-07-30T12:01:33;23.90;99.90
49503;DHT22;35409;48.776;9.204;2023-07-30T12:04:03;24.00;99.90
49503;DHT22;35409;48.776;9.204;2023-07-30T12:06:41;24.00;99.90
49503;DHT22;35409;48.776;9.204;2023-07-30T12:09:23;24.00;99.90
49503;DHT22;35409;48.776;9.204;2023-07-30T12:11:53;23.90;99.90
49503;DHT22;35409;48.776;9.204;2023-07-30T12:14:22;23.90;99.90
49503;DHT22;35409;48.776;9.204;2023-07-30T12:16:50;24.00;99.90
49503;DHT22;35409;48.776;9.204;2023-07-30T12:19:16;23.80;99.90
49503;DHT22;35409;48.776;9.204;2023-07-30T12:21:42;23.80;99.90
49503;DHT22;35409;48.776;9.204;2023-07-30T12:24:07;24.00;99.90
49503;DHT22;35409;48.776;9.204;2023-07-30T12:26:33;24.40;99.90
49503;DHT22;35409;48.776;9.204;2023-07-30T12:28:59;24.60;99.90
49503;DHT22;35409;48.776;9.204;2023-07-30T12:31:24;24.80;99.90
49503;DHT22;35409;48.776;9.204;2023-07-30T12:33:50;25.00;99.90
49503;DHT22;35409;48.776;9.204;2023-07-30T12:36:15;25.30;99.90
49503;DHT22;35409;48.776;9.204;2023-07-30T12:38:41;25.50;99.90
49503;DHT22;35409;48.776;9.204;2023-07-30T12:41:07;25.50;99.50
49503;DHT22;35409;48.776;9.204;2023-07-30T12:43:32;25.20;99.80
49503;DHT22;35409;48.776;9.204;2023-07-30T12:45:58;24.90;99.80
49503;DHT22;35409;48.776;9.204;2023-07-30T12:48:23;24.70;99.90
49503;DHT22;35409;48.776;9.204;2023-07-30T12:50:49;24.60;99.90
49503;DHT22;35409;48.776;9.204;2023-07-30T12:53:14;24.60;99.90
49503;DHT22;35409;48.776;9.204;2023-07-30T12:55:40;24.70;99.90
49503;DHT22;35409;48.776;9.204;2023-07-30T12:58:06;24.50;99.90
49503;DHT22;35409;48.776;9.204;2023-07-30T13:00:33;24.50;99.90
49503;DHT22;35409;48.776;9.204;2023-07-30T13:02:59;24.60;99.90
49503;DHT22;35409;48.776;9.204;2023-07-30T13:05:25;24.70;99.90
49503;DHT22;35409;48.776;9.204;2023-07-30T13:07:51;24.70;99.90
49503;DHT22;35409;48.776;9.204;2023-07-30T13:10:16;24.60;99.90
49503;DHT22;35409;48.776;9.204;2023-07-30T13:12:43;24.70;99.90
49503;DHT22;35409;48.776;9.204;2023-07-30T13:15:09;25.00;99.90
49503;DHT22;35409;48.776;9.204;2023-07-30T13:17:35;25.30;98.60
49503;DHT22;35409;48.776;9.204;2023-07-30T13:20:00;25.40;98.30
49503;DHT22;35409;48.776;9.204;2023-07-30T13:22:26;25.40;98.40
49503;DHT22;35409;48.776;9.204;2023-07-30T13:24:52;25.50;98.30
49503;DHT22;35409;48.776;9.204;2023-07-30T13:27:18;25.40;97.80
49503;DHT22;35409;48.776;9.204;2023-07-30T13:29:43;25.30;97.60
49503;DHT22;35409;48.776;9.204;2023-07-30T13:32:09;25.30;98.20
49503;DHT22;35409;48.776;9.204;2023-07-30T13:34:35;25.40;98.10
49503;DHT22;35409;48.776;9.204;2023-07-30T13:37:00;25.60;98.00
49503;DHT22;35409;48.776;9.204;2023-07-30T13:39:27;25.70;97.20
49503;DHT22;35409;48.776;9.204;2023-07-30T13:41:52;25.90;97.00
49503;DHT22;35409;48.776;9.204;2023-07-30T13:44:19;26.00;97.30
49503;DHT22;35409;48.776;9.204;2023-07-30T13:46:44;26.00;96.50
49503;DHT22;35409;48.776;9.204;2023-07-30T13:49:10;25.30;96.40
49503;DHT22;35409;48.776;9.204;2023-07-30T13:51:35;24.90;97.50
49503;DHT22;35409;48.776;9.204;2023-07-30T13:54:02;24.80;97.30
49503;DHT22;35409;48.776;9.204;2023-07-30T13:56:28;24.40;97.60
49503;DHT22;35409;48.776;9.204;2023-07-30T13:58:54;24.20;97.50
49503;DHT22;35409;48.776;9.204;2023-07-30T14:01:20;24.00;98.00
49503;DHT22;35409;48.776;9.204;2023-07-30T14:03:46;23.90;98.40
49503;DHT22;35409;48.776;9.204;2023-07-30T14:06:12;24.10;98.80
49503;DHT22;35409;48.776;9.204;2023-07-30T14:08:38;24.50;97.70
49503;DHT22;35409;48.776;9.204;2023-07-30T14:11:03;25.00;98.10
49503;DHT22;35409;48.776;9.204;2023-07-30T14:13:29;25.80;96.50
49503;DHT22;35409;48.776;9.204;2023-07-30T14:15:54;26.30;96.10
49503;DHT22;35409;48.776;9.204;2023-07-30T14:18:21;26.20;95.90
49503;DHT22;35409;48.776;9.204;2023-07-30T14:20:46;26.00;94.90
49503;DHT22;35409;48.776;9.204;2023-07-30T14:23:12;25.50;96.00
49503;DHT22;35409;48.776;9.204;2023-07-30T14:25:38;25.30;95.90
49503;DHT22;35409;48.776;9.204;2023-07-30T14:28:04;25.40;96.20
49503;DHT22;35409;48.776;9.204;2023-07-30T14:30:30;25.70;95.80
49503;DHT22;35409;48.776;9.204;2023-07-30T14:32:55;25.90;95.00
49503;DHT22;35409;48.776;9.204;2023-07-30T14:35:21;26.00;94.60
49503;DHT22;35409;48.776;9.204;2023-07-30T14:37:47;26.00;94.60
49503;DHT22;35409;48.776;9.204;2023-07-30T14:40:12;26.10;94.80
49503;DHT22;35409;48.776;9.204;2023-07-30T14:42:38;26.30;93.80
49503;DHT22;35409;48.776;9.204;2023-07-30T14:45:05;25.90;94.30
49503;DHT22;35409;48.776;9.204;2023-07-30T14:47:31;25.50;94.20
49503;DHT22;35409;48.776;9.204;2023-07-30T14:49:58;25.30;94.40
49503;DHT22;35409;48.776;9.204;2023-07-30T14:52:24;25.30;94.70
49503;DHT22;35409;48.776;9.204;2023-07-30T14:54:49;25.30;94.50
49503;DHT22;35409;48.776;9.204;2023-07-30T14:57:15;25.20;94.70
49503;DHT22;35409;48.776;9.204;2023-07-30T14:59:40;25.50;94.60
49503;DHT22;35409;48.776;9.204;2023-07-30T15:02:06;25.80;93.70
49503;DHT22;35409;48.776;9.204;2023-07-30T15:04:32;26.00;93.50
49503;DHT22;35409;48.776;9.204;2023-07-30T15:06:58;25.80;92.90
49503;DHT22;35409;48.776;9.204;2023-07-30T15:09:23;25.50;93.00
49503;DHT22;35409;48.776;9.204;2023-07-30T15:11:49;25.10;93.30
49503;DHT22;35409;48.776;9.204;2023-07-30T15:14:14;25.00;93.40
49503;DHT22;35409;48.776;9.204;2023-07-30T15:16:40;25.20;93.30
49503;DHT22;35409;48.776;9.204;2023-07-30T15:19:06;25.40;92.60
49503;DHT22;35409;48.776;9.204;2023-07-30T15:21:31;25.40;92.70
49503;DHT22;35409;48.776;9.204;2023-07-30T15:23:57;25.20;92.00
49503;DHT22;35409;48.776;9.204;2023-07-30T15:26:26;25.10;92.00
49503;DHT22;35409;48.776;9.204;2023-07-30T15:28:51;25.20;92.10
49503;DHT22;35409;48.776;9.204;2023-07-30T15:31:17;25.40;92.20